sensor_id;sensor_type;location;lat;lon;timestamp;temperature;humidity
29777;DHT22;16677;52.224;7.484;2023-12-20T00:01:23;7.10;99.90
29777;DHT22;16677;52.224;7.484;2023-12-20T00:03:50;7.10;99.90
29777;DHT22;16677;52.224;7.484;2023-12-20T00:06:17;7.10;99.90
29777;DHT22;16677;52.224;7.484;2023-12-20T00:08:44;7.10;99.90
29777;DHT22;16677;52.224;7.484;2023-12-20T00:11:11;7.20;99.90
29777;DHT22;16677;52.224;7.484;2023-12-20T00:13:38;7.20;99.90
29777;DHT22;16677;52.224;7.484;2023-12-20T00:16:05;7.30;99.90
29777;DHT22;16677;52.224;7.484;2023-12-20T00:18:32;7.30;99.90
29777;DHT22;16677;52.224;7.484;2023-12-20T00:20:59;7.30;99.90
29777;DHT22;16677;52.224;7.484;2023-12-20T00:23:26;7.30;99.90
29777;DHT22;16677;52.224;7.484;2023-12-20T00:25:53;7.40;99.90
29777;DHT22;16677;52.224;7.484;2023-12-20T00:28:20;7.40;99.90
29777;DHT22;16677;52.224;7.484;2023-12-20T00:30:47;7.40;99.90
29777;DHT22;16677;52.224;7.484;2023-12-20T00:33:14;7.40;23.90
29777;DHT22;16677;52.224;7.484;2023-12-20T00:35:41;7.40;17.60
29777;DHT22;16677;52.224;7.484;2023-12-20T00:38:08;7.30;1.60
29777;DHT22;16677;52.224;7.484;2023-12-20T00:40:38;7.20;1.00
29777;DHT22;16677;52.224;7.484;2023-12-20T00:43:05;7.20;9.10
29777;DHT22;16677;52.224;7.484;2023-12-20T00:45:32;7.20;8.90
29777;DHT22;16677;52.224;7.484;2023-12-20T00:47:59;7.10;21.70
29777;DHT22;16677;52.224;7.484;2023-12-20T00:50:26;7.00;1.00
29777;DHT22;16677;52.224;7.484;2023-12-20T00:52:55;7.00;1.90
29777;DHT22;16677;52.224;7.484;2023-12-20T00:55:22;7.00;18.20
29777;DHT22;16677;52.224;7.484;2023-12-20T00:57:49;7.00;1.00
29777;DHT22;16677;52.224;7.484;2023-12-20T01:00:17;6.90;1.00
29777;DHT22;16677;52.224;7.484;2023-12-20T01:02:44;6.90;1.00
29777;DHT22;16677;52.224;7.484;2023-12-20T01:05:13;6.80;1.00
29777;DHT22;16677;52.224;7.484;2023-12-20T01:07:40;6.80;1.00
29777;DHT22;16677;52.224;7.484;2023-12-20T01:10:07;6.80;9.00
29777;DHT22;16677;52.224;7.484;2023-12-20T01:12:36;6.70;1.00
29777;DHT22;16677;52.224;7.484;2023-12-20T01:15:03;6.70;12.30
29777;DHT22;16677;52.224;7.484;2023-12-20T01:17:30;6.70;21.10
29777;DHT22;16677;52.224;7.484;2023-12-20T01:19:57;6.70;1.00
29777;DHT22;16677;52.224;7.484;2023-12-20T01:22:24;6.70;1.00
29777;DHT22;16677;52.224;7.484;2023-12-20T01:24:51;6.60;1.00
29777;DHT22;16677;52.224;7.484;2023-12-20T01:27:18;6.60;1.00
29777;DHT22;16677;52.224;7.484;2023-12-20T01:29:45;6.70;14.30
29777;DHT22;16677;52.224;7.484;2023-12-20T01:32:12;6.60;1.00
29777;DHT22;16677;52.224;7.484;2023-12-20T01:34:39;6.60;16.00
29777;DHT22;16677;52.224;7.484;2023-12-20T01:37:07;6.60;15.70
29777;DHT22;16677;52.224;7.484;2023-12-20T01:39:34;6.50;1.40
29777;DHT22;16677;52.224;7.484;2023-12-20T01:42:00;6.50;1.00
29777;DHT22;16677;52.224;7.484;2023-12-20T01:44:27;6.50;6.10
29777;DHT22;16677;52.224;7.484;2023-12-20T01:46:54;6.50;15.50
29777;DHT22;16677;52.224;7.484;2023-12-20T01:49:21;6.50;1.00
29777;DHT22;16677;52.224;7.484;2023-12-20T01:51:49;6.50;1.00
29777;DHT22;16677;52.224;7.484;2023-12-20T01:54:16;6.40;1.00
29777;DHT22;16677;52.224;7.484;2023-12-20T01:56:44;6.40;1.00
29777;DHT22;16677;52.224;7.484;2023-12-20T01:59:11;6.40;1.00
29777;DHT22;16677;52.224;7.484;2023-12-20T02:01:38;6.40;1.00
29777;DHT22;16677;52.224;7.484;2023-12-20T02:04:05;6.50;1.00
29777;DHT22;16677;52.224;7.484;2023-12-20T02:06:32;6.50;1.00
29777;DHT22;16677;52.224;7.484;2023-12-20T02:09:00;6.50;1.00
29777;DHT22;16677;52.224;7.484;2023-12-20T02:11:27;6.50;1.00
29777;DHT22;16677;52.224;7.484;2023-12-20T02:13:55;6.50;1.00
29777;DHT22;16677;52.224;7.484;2023-12-20T02:16:22;6.40;1.00
29777;DHT22;16677;52.224;7.484;2023-12-20T02:18:49;6.40;1.00
29777;DHT22;16677;52.224;7.484;2023-12-20T02:21:16;6.40;1.00
29777;DHT22;16677;52.224;7.484;2023-12-20T02:23:43;6.40;1.00
29777;DHT22;16677;52.224;7.484;2023-12-20T02:26:10;6.40;1.00
29777;DHT22;16677;52.224;7.484;2023-12-20T02:28:37;6.40;1.00
29777;DHT22;16677;52.224;7.484;2023-12-20T02:31:04;6.40;1.00
29777;DHT22;16677;52.224;7.484;2023-12-20T02:33:31;6.50;1.00
29777;DHT22;16677;52.224;7.484;2023-12-20T02:35:58;6.40;1.00
29777;DHT22;16677;52.224;7.484;2023-12-20T02:38:25;6.40;1.00
29777;DHT22;16677;52.224;7.484;2023-12-20T02:40:52;6.40;1.00
29777;DHT22;16677;52.224;7.484;2023-12-20T02:43:19;6.40;1.00
29777;DHT22;16677;52.224;7.484;2023-12-20T02:45:46;6.50;1.00
29777;DHT22;16677;52.224;7.484;2023-12-20T02:48:13;6.30;1.00
29777;DHT22;16677;52.224;7.484;2023-12-20T02:50:40;6.40;1.00
29777;DHT22;16677;52.224;7.484;2023-12-20T02:53:07;6.30;1.00
29777;DHT22;16677;52.224;7.484;2023-12-20T02:55:34;6.30;1.00
29777;DHT22;16677;52.224;7.484;2023-12-20T02:58:01;6.30;1.00
29777;DHT22;16677;52.224;7.484;2023-12-20T03:00:28;6.30;1.00
29777;DHT22;16677;52.224;7.484;2023-12-20T03:02:55;6.30;1.00
29777;DHT22;16677;52.224;7.484;2023-12-20T03:05:22;6.20;1.00
29777;DHT22;16677;52.224;7.484;2023-12-20T03:07:49;6.20;1.00
29777;DHT22;16677;52.224;7.484;2023-12-20T03:10:16;6.20;1.00
29777;DHT22;16677;52.224;7.484;2023-12-20T03:12:49;6.20;1.00
29777;DHT22;16677;52.224;7.484;2023-12-20T03:15:16;6.20;1.00
29777;DHT22;16677;52.224;7.484;2023-12-20T03:17:43;6.20;99.90
29777;DHT22;16677;52.224;7.484;2023-12-20T03:20:11;6.20;1.00
29777;DHT22;16677;52.224;7.484;2023-12-20T03:22:38;6.20;99.90
29777;DHT22;16677;52.224;7.484;2023-12-20T03:25:05;6.20;99.90
29777;DHT22;16677;52.224;7.484;2023-12-20T03:27:32;6.30;99.90
29777;DHT22;16677;52.224;7.484;2023-12-20T03:29:58;6.30;99.90
29777;DHT22;16677;52.224;7.484;2023-12-20T03:32:25;6.30;99.90
29777;DHT22;16677;52.224;7.484;2023-12-20T03:34:52;6.30;99.90
29777;DHT22;16677;52.224;7.484;2023-12-20T03:37:19;6.30;99.90
29777;DHT22;16677;52.224;7.484;2023-12-20T03:39:46;6.40;99.90
29777;DHT22;16677;52.224;7.484;2023-12-20T03:42:13;6.30;99.90
29777;DHT22;16677;52.224;7.484;2023-12-20T03:44:40;6.40;99.90
29777;DHT22;16677;52.224;7.484;2023-12-20T03:47:08;6.40;99.90
29777;DHT22;16677;52.224;7.484;2023-12-20T03:49:34;6.40;99.90
29777;DHT22;16677;52.224;7.484;2023-12-20T03:52:04;6.40;99.90
29777;DHT22;16677;52.224;7.484;2023-12-20T03:54:31;6.40;99.90
29777;DHT22;16677;52.224;7.484;2023-12-20T03:56:58;6.40;99.90
29777;DHT22;16677;52.224;7.484;2023-12-20T03:59:25;6.40;99.90
29777;DHT22;16677;52.224;7.484;2023-12-20T04:01:52;6.40;75.10
29777;DHT22;16677;52.224;7.484;2023-12-20T04:04:19;6.40;26.00
29777;DHT22;16677;52.224;7.484;2023-12-20T04:06:46;6.40;53.80
29777;DHT22;16677;52.224;7.484;2023-12-20T04:09:13;6.40;1.00
29777;DHT22;16677;52.224;7.484;2023-12-20T04:11:40;6.50;1.00
29777;DHT22;16677;52.224;7.484;2023-12-20T04:14:07;6.50;99.90
29777;DHT22;16677;52.224;7.484;2023-12-20T04:16:34;6.50;99.90
29777;DHT22;16677;52.224;7.484;2023-12-20T04:19:01;6.50;1.00
29777;DHT22;16677;52.224;7.484;2023-12-20T04:21:29;6.60;99.90
29777;DHT22;16677;52.224;7.484;2023-12-20T04:23:56;6.60;99.90
29777;DHT22;16677;52.224;7.484;2023-12-20T04:26:24;6.60;99.90
29777;DHT22;16677;52.224;7.484;2023-12-20T04:28:50;6.60;99.90
29777;DHT22;16677;52.224;7.484;2023-12-20T04:31:20;6.60;99.90
29777;DHT22;16677;52.224;7.484;2023-12-20T04:33:47;6.60;1.00
29777;DHT22;16677;52.224;7.484;2023-12-20T04:36:13;6.60;1.00
29777;DHT22;16677;52.224;7.484;2023-12-20T04:38:40;6.60;1.00
29777;DHT22;16677;52.224;7.484;2023-12-20T04:41:07;6.60;1.00
29777;DHT22;16677;52.224;7.484;2023-12-20T04:43:34;6.60;1.00
29777;DHT22;16677;52.224;7.484;2023-12-20T04:46:01;6.60;1.00
29777;DHT22;16677;52.224;7.484;2023-12-20T04:48:28;6.60;1.00
29777;DHT22;16677;52.224;7.484;2023-12-20T04:50:55;6.70;1.00
29777;DHT22;16677;52.224;7.484;2023-12-20T04:53:22;6.70;1.00
29777;DHT22;16677;52.224;7.484;2023-12-20T04:55:49;6.70;1.00
29777;DHT22;16677;52.224;7.484;2023-12-20T04:58:16;6.70;1.00
29777;DHT22;16677;52.224;7.484;2023-12-20T05:00:44;6.80;99.90
29777;DHT22;16677;52.224;7.484;2023-12-20T05:03:11;6.80;99.90
29777;DHT22;16677;52.224;7.484;2023-12-20T05:05:38;6.70;1.00
29777;DHT22;16677;52.224;7.484;2023-12-20T05:08:05;6.70;1.00
29777;DHT22;16677;52.224;7.484;2023-12-20T05:10:33;6.70;1.00
29777;DHT22;16677;52.224;7.484;2023-12-20T05:12:59;6.70;1.00
29777;DHT22;16677;52.224;7.484;2023-12-20T05:15:27;6.70;1.00
29777;DHT22;16677;52.224;7.484;2023-12-20T05:17:54;6.70;1.00
29777;DHT22;16677;52.224;7.484;2023-12-20T05:20:21;6.70;1.00
29777;DHT22;16677;52.224;7.484;2023-12-20T05:22:48;6.70;1.00
29777;DHT22;16677;52.224;7.484;2023-12-20T05:25:14;6.70;1.00
29777;DHT22;16677;52.224;7.484;2023-12-20T05:27:41;6.70;1.00
29777;DHT22;16677;52.224;7.484;2023-12-20T05:30:09;6.70;1.00
29777;DHT22;16677;52.224;7.484;2023-12-20T05:32:36;6.70;1.00
29777;DHT22;16677;52.224;7.484;2023-12-20T05:35:03;6.80;1.00
29777;DHT22;16677;52.224;7.484;2023-12-20T05:37:31;6.80;99.90
29777;DHT22;16677;52.224;7.484;2023-12-20T05:39:58;6.80;99.90
29777;DHT22;16677;52.224;7.484;2023-12-20T05:42:25;6.80;99.90
29777;DHT22;16677;52.224;7.484;2023-12-20T05:44:52;6.80;1.00
29777;DHT22;16677;52.224;7.484;2023-12-20T05:47:20;6.80;1.00
29777;DHT22;16677;52.224;7.484;2023-12-20T05:49:47;6.70;99.90
29777;DHT22;16677;52.224;7.484;2023-12-20T05:52:14;6.70;1.00
29777;DHT22;16677;52.224;7.484;2023-12-20T05:54:41;6.80;1.00
29777;DHT22;16677;52.224;7.484;2023-12-20T05:57:08;6.70;1.00
29777;DHT22;16677;52.224;7.484;2023-12-20T05:59:35;6.70;1.00
29777;DHT22;16677;52.224;7.484;2023-12-20T06:02:03;6.70;1.00
29777;DHT22;16677;52.224;7.484;2023-12-20T06:04:30;6.80;1.00
29777;DHT22;16677;52.224;7.484;2023-12-20T06:06:57;6.80;1.00
29777;DHT22;16677;52.224;7.484;2023-12-20T06:09:24;6.80;99.90
29777;DHT22;16677;52.224;7.484;2023-12-20T06:11:51;6.80;99.90
29777;DHT22;16677;52.224;7.484;2023-12-20T06:14:18;6.80;99.90
29777;DHT22;16677;52.224;7.484;2023-12-20T06:16:45;6.80;99.90
29777;DHT22;16677;52.224;7.484;2023-12-20T06:19:12;6.80;99.90
29777;DHT22;16677;52.224;7.484;2023-12-20T06:21:40;6.80;37.90
29777;DHT22;16677;52.224;7.484;2023-12-20T06:24:10;6.90;1.00
29777;DHT22;16677;52.224;7.484;2023-12-20T06:26:37;6.90;1.00
29777;DHT22;16677;52.224;7.484;2023-12-20T06:29:04;6.90;1.00
29777;DHT22;16677;52.224;7.484;2023-12-20T06:31:31;6.90;1.00
29777;DHT22;16677;52.224;7.484;2023-12-20T06:34:00;7.00;99.90
29777;DHT22;16677;52.224;7.484;2023-12-20T06:36:27;7.00;99.90
29777;DHT22;16677;52.224;7.484;2023-12-20T06:38:54;7.00;99.90
29777;DHT22;16677;52.224;7.484;2023-12-20T06:41:35;7.00;1.00
29777;DHT22;16677;52.224;7.484;2023-12-20T06:44:02;6.90;1.00
29777;DHT22;16677;52.224;7.484;2023-12-20T06:46:28;7.00;99.90
29777;DHT22;16677;52.224;7.484;2023-12-20T06:48:55;7.00;99.90
29777;DHT22;16677;52.224;7.484;2023-12-20T06:51:22;7.10;99.90
29777;DHT22;16677;52.224;7.484;2023-12-20T06:53:52;7.00;99.90
29777;DHT22;16677;52.224;7.484;2023-12-20T06:56:19;7.00;1.00
29777;DHT22;16677;52.224;7.484;2023-12-20T06:58:46;7.00;99.90
29777;DHT22;16677;52.224;7.484;2023-12-20T07:01:13;7.00;99.90
29777;DHT22;16677;52.224;7.484;2023-12-20T07:03:40;7.00;99.90
29777;DHT22;16677;52.224;7.484;2023-12-20T07:06:08;7.00;99.90
29777;DHT22;16677;52.224;7.484;2023-12-20T07:08:35;6.90;1.00
29777;DHT22;16677;52.224;7.484;2023-12-20T07:11:02;7.00;99.90
29777;DHT22;16677;52.224;7.484;2023-12-20T07:13:29;7.00;77.40
29777;DHT22;16677;52.224;7.484;2023-12-20T07:15:57;7.00;99.90
29777;DHT22;16677;52.224;7.484;2023-12-20T07:18:24;7.00;97.50
29777;DHT22;16677;52.224;7.484;2023-12-20T07:20:51;7.10;99.90
29777;DHT22;16677;52.224;7.484;2023-12-20T07:23:18;7.00;1.00
29777;DHT22;16677;52.224;7.484;2023-12-20T07:25:46;7.10;1.00
29777;DHT22;16677;52.224;7.484;2023-12-20T07:28:13;7.10;99.90
29777;DHT22;16677;52.224;7.484;2023-12-20T07:30:42;7.10;99.90
29777;DHT22;16677;52.224;7.484;2023-12-20T07:33:09;7.20;1.00
29777;DHT22;16677;52.224;7.484;2023-12-20T07:35:37;7.20;1.00
29777;DHT22;16677;52.224;7.484;2023-12-20T07:38:04;7.30;1.00
29777;DHT22;16677;52.224;7.484;2023-12-20T07:40:31;7.30;1.00
29777;DHT22;16677;52.224;7.484;2023-12-20T07:42:58;7.30;99.90
29777;DHT22;16677;52.224;7.484;2023-12-20T07:45:25;7.30;99.90
29777;DHT22;16677;52.224;7.484;2023-12-20T07:47:52;7.30;99.90
29777;DHT22;16677;52.224;7.484;2023-12-20T07:50:18;7.20;1.00
29777;DHT22;16677;52.224;7.484;2023-12-20T07:52:45;7.30;1.00
29777;DHT22;16677;52.224;7.484;2023-12-20T07:55:12;7.30;99.90
29777;DHT22;16677;52.224;7.484;2023-12-20T07:57:39;7.30;1.00
29777;DHT22;16677;52.224;7.484;2023-12-20T08:00:06;7.30;1.00
29777;DHT22;16677;52.224;7.484;2023-12-20T08:02:34;7.20;1.00
29777;DHT22;16677;52.224;7.484;2023-12-20T08:05:00;7.20;99.90
29777;DHT22;16677;52.224;7.484;2023-12-20T08:07:27;7.20;99.90
29777;DHT22;16677;52.224;7.484;2023-12-20T08:09:54;7.20;99.90
29777;DHT22;16677;52.224;7.484;2023-12-20T08:12:23;7.30;1.00
29777;DHT22;16677;52.224;7.484;2023-12-20T08:14:52;7.30;99.90
29777;DHT22;16677;52.224;7.484;2023-12-20T08:17:19;7.30;99.90
29777;DHT22;16677;52.224;7.484;2023-12-20T08:19:46;7.30;99.90
29777;DHT22;16677;52.224;7.484;2023-12-20T08:22:13;7.30;1.00
29777;DHT22;16677;52.224;7.484;2023-12-20T08:24:40;7.40;1.00
29777;DHT22;16677;52.224;7.484;2023-12-20T08:27:07;7.40;1.00
29777;DHT22;16677;52.224;7.484;2023-12-20T08:29:36;7.40;99.90
29777;DHT22;16677;52.224;7.484;2023-12-20T08:32:03;7.40;1.00
29777;DHT22;16677;52.224;7.484;2023-12-20T08:34:30;7.40;1.00
29777;DHT22;16677;52.224;7.484;2023-12-20T08:36:57;7.40;99.90
29777;DHT22;16677;52.224;7.484;2023-12-20T08:39:24;7.40;1.00
29777;DHT22;16677;52.224;7.484;2023-12-20T08:41:51;7.40;1.00
29777;DHT22;16677;52.224;7.484;2023-12-20T08:44:18;7.40;1.00
29777;DHT22;16677;52.224;7.484;2023-12-20T08:46:45;7.40;1.00
29777;DHT22;16677;52.224;7.484;2023-12-20T08:49:12;7.40;1.00
29777;DHT22;16677;52.224;7.484;2023-12-20T08:51:39;7.40;99.90
29777;DHT22;16677;52.224;7.484;2023-12-20T08:54:07;7.40;1.00
29777;DHT22;16677;52.224;7.484;2023-12-20T08:56:34;7.50;1.00
29777;DHT22;16677;52.224;7.484;2023-12-20T08:59:01;7.40;99.90
29777;DHT22;16677;52.224;7.484;2023-12-20T09:01:29;7.40;28.80
29777;DHT22;16677;52.224;7.484;2023-12-20T09:03:56;7.50;99.90
29777;DHT22;16677;52.224;7.484;2023-12-20T09:06:23;7.40;99.90
29777;DHT22;16677;52.224;7.484;2023-12-20T09:08:51;7.40;1.00
29777;DHT22;16677;52.224;7.484;2023-12-20T09:11:18;7.50;1.00
29777;DHT22;16677;52.224;7.484;2023-12-20T09:13:45;7.50;1.00
29777;DHT22;16677;52.224;7.484;2023-12-20T09:16:11;7.50;64.90
29777;DHT22;16677;52.224;7.484;2023-12-20T09:18:40;7.50;99.90
29777;DHT22;16677;52.224;7.484;2023-12-20T09:21:09;7.50;1.00
29777;DHT22;16677;52.224;7.484;2023-12-20T09:23:36;7.50;1.00
29777;DHT22;16677;52.224;7.484;2023-12-20T09:26:03;7.50;1.00
29777;DHT22;16677;52.224;7.484;2023-12-20T09:28:30;7.60;99.90
29777;DHT22;16677;52.224;7.484;2023-12-20T09:30:59;7.50;1.00
29777;DHT22;16677;52.224;7.484;2023-12-20T09:33:26;7.50;99.90
29777;DHT22;16677;52.224;7.484;2023-12-20T09:35:53;7.50;1.00
29777;DHT22;16677;52.224;7.484;2023-12-20T09:38:20;7.50;99.90
29777;DHT22;16677;52.224;7.484;2023-12-20T09:40:47;7.50;1.00
29777;DHT22;16677;52.224;7.484;2023-12-20T09:43:14;7.60;1.00
29777;DHT22;16677;52.224;7.484;2023-12-20T09:45:44;7.50;99.90
29777;DHT22;16677;52.224;7.484;2023-12-20T09:48:12;7.40;99.90
29777;DHT22;16677;52.224;7.484;2023-12-20T09:50:41;7.40;99.90
29777;DHT22;16677;52.224;7.484;2023-12-20T09:53:12;7.50;1.00
29777;DHT22;16677;52.224;7.484;2023-12-20T09:55:41;7.50;99.90
29777;DHT22;16677;52.224;7.484;2023-12-20T09:58:08;7.50;99.90
29777;DHT22;16677;52.224;7.484;2023-12-20T10:00:35;7.50;1.00
29777;DHT22;16677;52.224;7.484;2023-12-20T10:03:02;7.40;99.90
29777;DHT22;16677;52.224;7.484;2023-12-20T10:05:30;7.40;99.90
29777;DHT22;16677;52.224;7.484;2023-12-20T10:07:58;7.40;1.00
29777;DHT22;16677;52.224;7.484;2023-12-20T10:10:26;7.40;1.00
29777;DHT22;16677;52.224;7.484;2023-12-20T10:13:10;7.40;1.00
29777;DHT22;16677;52.224;7.484;2023-12-20T10:15:37;7.40;99.90
29777;DHT22;16677;52.224;7.484;2023-12-20T10:18:04;7.40;99.90
29777;DHT22;16677;52.224;7.484;2023-12-20T10:20:32;7.40;1.00
29777;DHT22;16677;52.224;7.484;2023-12-20T10:22:59;7.40;1.00
29777;DHT22;16677;52.224;7.484;2023-12-20T10:25:27;7.50;1.00
29777;DHT22;16677;52.224;7.484;2023-12-20T10:28:11;7.60;1.00
29777;DHT22;16677;52.224;7.484;2023-12-20T10:30:39;7.50;1.00
29777;DHT22;16677;52.224;7.484;2023-12-20T10:33:06;7.60;1.00
29777;DHT22;16677;52.224;7.484;2023-12-20T10:35:35;7.50;1.00
29777;DHT22;16677;52.224;7.484;2023-12-20T10:38:05;7.50;1.00
29777;DHT22;16677;52.224;7.484;2023-12-20T10:40:36;7.40;1.00
29777;DHT22;16677;52.224;7.484;2023-12-20T10:43:04;7.50;1.00
29777;DHT22;16677;52.224;7.484;2023-12-20T10:45:31;7.40;1.00
29777;DHT22;16677;52.224;7.484;2023-12-20T10:47:58;7.50;1.00
29777;DHT22;16677;52.224;7.484;2023-12-20T10:50:27;7.50;1.00
29777;DHT22;16677;52.224;7.484;2023-12-20T10:52:55;7.50;1.00
29777;DHT22;16677;52.224;7.484;2023-12-20T10:55:23;7.60;99.90
29777;DHT22;16677;52.224;7.484;2023-12-20T10:58:06;7.70;1.00
29777;DHT22;16677;52.224;7.484;2023-12-20T11:00:35;7.80;1.00
29777;DHT22;16677;52.224;7.484;2023-12-20T11:03:04;7.90;99.90
29777;DHT22;16677;52.224;7.484;2023-12-20T11:05:46;8.10;99.90
29777;DHT22;16677;52.224;7.484;2023-12-20T11:10:47;8.10;99.90
29777;DHT22;16677;52.224;7.484;2023-12-20T11:13:22;7.90;99.90
29777;DHT22;16677;52.224;7.484;2023-12-20T11:15:50;8.20;1.00
29777;DHT22;16677;52.224;7.484;2023-12-20T11:18:17;8.20;90.00
29777;DHT22;16677;52.224;7.484;2023-12-20T11:20:44;8.20;99.90
29777;DHT22;16677;52.224;7.484;2023-12-20T11:23:11;8.20;99.90
29777;DHT22;16677;52.224;7.484;2023-12-20T11:25:56;8.20;99.90
29777;DHT22;16677;52.224;7.484;2023-12-20T11:28:26;8.10;99.90
29777;DHT22;16677;52.224;7.484;2023-12-20T11:30:54;8.10;1.90
29777;DHT22;16677;52.224;7.484;2023-12-20T11:33:22;8.10;99.90
29777;DHT22;16677;52.224;7.484;2023-12-20T11:35:55;8.20;1.00
29777;DHT22;16677;52.224;7.484;2023-12-20T11:38:22;8.20;99.90
29777;DHT22;16677;52.224;7.484;2023-12-20T11:40:49;8.30;99.90
29777;DHT22;16677;52.224;7.484;2023-12-20T11:43:38;8.20;19.90
29777;DHT22;16677;52.224;7.484;2023-12-20T11:46:05;8.10;1.00
29777;DHT22;16677;52.224;7.484;2023-12-20T11:48:37;8.10;99.90
29777;DHT22;16677;52.224;7.484;2023-12-20T11:51:10;8.00;1.00
29777;DHT22;16677;52.224;7.484;2023-12-20T11:53:38;8.10;1.00
29777;DHT22;16677;52.224;7.484;2023-12-20T11:56:05;8.00;1.00
29777;DHT22;16677;52.224;7.484;2023-12-20T11:58:35;7.90;99.90
29777;DHT22;16677;52.224;7.484;2023-12-20T12:01:02;7.90;99.90
29777;DHT22;16677;52.224;7.484;2023-12-20T12:03:31;7.80;1.00
29777;DHT22;16677;52.224;7.484;2023-12-20T12:05:58;8.10;1.00
29777;DHT22;16677;52.224;7.484;2023-12-20T12:08:26;8.00;1.00
29777;DHT22;16677;52.224;7.484;2023-12-20T12:10:53;7.40;1.00
29777;DHT22;16677;52.224;7.484;2023-12-20T12:13:20;7.40;1.00
29777;DHT22;16677;52.224;7.484;2023-12-20T12:15:47;7.40;1.00
29777;DHT22;16677;52.224;7.484;2023-12-20T12:18:17;7.40;58.40
29777;DHT22;16677;52.224;7.484;2023-12-20T12:20:45;7.20;62.70
29777;DHT22;16677;52.224;7.484;2023-12-20T12:25:40;6.90;99.90
29777;DHT22;16677;52.224;7.484;2023-12-20T12:28:09;6.90;99.90
29777;DHT22;16677;52.224;7.484;2023-12-20T12:30:37;6.80;99.90
29777;DHT22;16677;52.224;7.484;2023-12-20T12:33:08;6.60;99.90
29777;DHT22;16677;52.224;7.484;2023-12-20T12:35:35;6.60;99.90
29777;DHT22;16677;52.224;7.484;2023-12-20T12:38:02;6.50;99.90
29777;DHT22;16677;52.224;7.484;2023-12-20T12:40:30;6.50;99.90
29777;DHT22;16677;52.224;7.484;2023-12-20T12:43:01;6.60;99.90
29777;DHT22;16677;52.224;7.484;2023-12-20T12:45:28;6.60;99.90
29777;DHT22;16677;52.224;7.484;2023-12-20T12:47:55;6.40;99.90
29777;DHT22;16677;52.224;7.484;2023-12-20T12:50:22;6.50;99.90
29777;DHT22;16677;52.224;7.484;2023-12-20T12:52:49;6.60;99.90
29777;DHT22;16677;52.224;7.484;2023-12-20T12:55:16;6.50;99.90
29777;DHT22;16677;52.224;7.484;2023-12-20T12:57:43;6.70;99.90
29777;DHT22;16677;52.224;7.484;2023-12-20T13:00:10;6.60;99.90
29777;DHT22;16677;52.224;7.484;2023-12-20T13:02:38;6.60;99.90
29777;DHT22;16677;52.224;7.484;2023-12-20T13:05:08;6.70;99.90
29777;DHT22;16677;52.224;7.484;2023-12-20T13:07:35;6.60;99.90
29777;DHT22;16677;52.224;7.484;2023-12-20T13:10:04;6.60;99.90
29777;DHT22;16677;52.224;7.484;2023-12-20T13:12:32;6.70;99.90
29777;DHT22;16677;52.224;7.484;2023-12-20T13:14:59;6.60;64.70
29777;DHT22;16677;52.224;7.484;2023-12-20T13:17:26;6.60;25.80
29777;DHT22;16677;52.224;7.484;2023-12-20T13:19:55;6.70;19.20
29777;DHT22;16677;52.224;7.484;2023-12-20T13:22:22;6.70;11.10
29777;DHT22;16677;52.224;7.484;2023-12-20T13:24:50;6.70;5.30
29777;DHT22;16677;52.224;7.484;2023-12-20T13:27:17;6.70;1.00
29777;DHT22;16677;52.224;7.484;2023-12-20T13:29:44;6.70;1.00
29777;DHT22;16677;52.224;7.484;2023-12-20T13:32:11;6.70;1.00
29777;DHT22;16677;52.224;7.484;2023-12-20T13:34:38;6.60;1.00
29777;DHT22;16677;52.224;7.484;2023-12-20T13:37:05;6.70;1.00
29777;DHT22;16677;52.224;7.484;2023-12-20T13:39:32;6.70;1.00
29777;DHT22;16677;52.224;7.484;2023-12-20T13:41:59;6.70;1.00
29777;DHT22;16677;52.224;7.484;2023-12-20T13:44:27;6.80;1.00
29777;DHT22;16677;52.224;7.484;2023-12-20T13:46:54;6.80;1.00
29777;DHT22;16677;52.224;7.484;2023-12-20T13:49:21;6.80;1.00
29777;DHT22;16677;52.224;7.484;2023-12-20T13:51:52;6.80;1.00
29777;DHT22;16677;52.224;7.484;2023-12-20T13:54:21;6.90;1.00
29777;DHT22;16677;52.224;7.484;2023-12-20T13:56:49;6.90;1.00
29777;DHT22;16677;52.224;7.484;2023-12-20T13:59:27;6.80;1.00
29777;DHT22;16677;52.224;7.484;2023-12-20T14:01:53;6.90;1.00
29777;DHT22;16677;52.224;7.484;2023-12-20T14:04:23;7.00;1.00
29777;DHT22;16677;52.224;7.484;2023-12-20T14:07:06;6.90;1.00
29777;DHT22;16677;52.224;7.484;2023-12-20T14:09:34;6.80;1.00
29777;DHT22;16677;52.224;7.484;2023-12-20T14:12:01;6.80;1.00
29777;DHT22;16677;52.224;7.484;2023-12-20T14:14:28;6.80;1.00
29777;DHT22;16677;52.224;7.484;2023-12-20T14:16:55;7.00;1.00
29777;DHT22;16677;52.224;7.484;2023-12-20T14:19:21;7.00;1.00
29777;DHT22;16677;52.224;7.484;2023-12-20T14:21:48;7.00;1.00
29777;DHT22;16677;52.224;7.484;2023-12-20T14:24:15;6.90;1.00
29777;DHT22;16677;52.224;7.484;2023-12-20T14:26:42;6.90;1.00
29777;DHT22;16677;52.224;7.484;2023-12-20T14:29:09;7.00;1.00
29777;DHT22;16677;52.224;7.484;2023-12-20T14:31:36;7.00;1.00
29777;DHT22;16677;52.224;7.484;2023-12-20T14:34:05;7.10;1.00
29777;DHT22;16677;52.224;7.484;2023-12-20T14:36:34;7.10;1.00
29777;DHT22;16677;52.224;7.484;2023-12-20T14:39:01;7.00;1.00
29777;DHT22;16677;52.224;7.484;2023-12-20T14:41:30;6.90;18.40
29777;DHT22;16677;52.224;7.484;2023-12-20T14:43:58;7.00;15.80
29777;DHT22;16677;52.224;7.484;2023-12-20T14:46:26;7.00;21.20
29777;DHT22;16677;52.224;7.484;2023-12-20T14:48:55;7.10;70.90
29777;DHT22;16677;52.224;7.484;2023-12-20T14:51:22;7.20;1.00
29777;DHT22;16677;52.224;7.484;2023-12-20T14:53:51;7.20;1.00
29777;DHT22;16677;52.224;7.484;2023-12-20T14:56:18;7.20;1.00
29777;DHT22;16677;52.224;7.484;2023-12-20T14:58:46;7.30;1.00
29777;DHT22;16677;52.224;7.484;2023-12-20T15:01:14;7.30;1.00
29777;DHT22;16677;52.224;7.484;2023-12-20T15:03:41;7.30;1.00
29777;DHT22;16677;52.224;7.484;2023-12-20T15:06:08;7.40;1.00
29777;DHT22;16677;52.224;7.484;2023-12-20T15:08:38;7.40;1.00
29777;DHT22;16677;52.224;7.484;2023-12-20T15:11:05;7.40;1.00
29777;DHT22;16677;52.224;7.484;2023-12-20T15:13:32;7.40;1.00
29777;DHT22;16677;52.224;7.484;2023-12-20T15:15:59;7.50;1.00
29777;DHT22;16677;52.224;7.484;2023-12-20T15:18:27;7.40;1.00
29777;DHT22;16677;52.224;7.484;2023-12-20T15:20:54;7.40;1.00
29777;DHT22;16677;52.224;7.484;2023-12-20T15:23:21;7.50;1.00
29777;DHT22;16677;52.224;7.484;2023-12-20T15:25:52;7.50;1.00
29777;DHT22;16677;52.224;7.484;2023-12-20T15:28:19;7.70;99.90
29777;DHT22;16677;52.224;7.484;2023-12-20T15:30:46;7.80;99.90
29777;DHT22;16677;52.224;7.484;2023-12-20T15:33:14;7.80;99.90
29777;DHT22;16677;52.224;7.484;2023-12-20T15:35:41;7.80;99.90
29777;DHT22;16677;52.224;7.484;2023-12-20T15:38:08;7.80;1.00
29777;DHT22;16677;52.224;7.484;2023-12-20T15:40:35;7.80;1.00
29777;DHT22;16677;52.224;7.484;2023-12-20T15:43:02;7.90;1.00
29777;DHT22;16677;52.224;7.484;2023-12-20T15:45:29;7.80;1.00
29777;DHT22;16677;52.224;7.484;2023-12-20T15:47:56;7.90;1.00
29777;DHT22;16677;52.224;7.484;2023-12-20T15:50:23;7.90;1.00
29777;DHT22;16677;52.224;7.484;2023-12-20T15:52:51;8.00;99.90
29777;DHT22;16677;52.224;7.484;2023-12-20T15:55:18;8.00;99.90
29777;DHT22;16677;52.224;7.484;2023-12-20T15:57:45;8.00;99.90
29777;DHT22;16677;52.224;7.484;2023-12-20T16:00:19;8.00;99.90
29777;DHT22;16677;52.224;7.484;2023-12-20T16:02:46;8.00;99.90